createdAt,value
2018-05-14T00:01:11.972Z,13.30
2018-05-14T00:03:40.004Z,13.30
2018-05-14T00:06:08.429Z,13.30
2018-05-14T00:08:37.108Z,13.30
2018-05-14T00:11:04.925Z,13.30
2018-05-14T00:13:32.536Z,13.30
2018-05-14T00:16:01.012Z,13.30
2018-05-14T00:18:28.592Z,13.30
2018-05-14T00:20:57.265Z,13.30
2018-05-14T00:23:25.732Z,13.30
2018-05-14T00:25:53.285Z,13.20
2018-05-14T00:28:21.061Z,13.30
2018-05-14T00:30:48.719Z,13.20
2018-05-14T00:33:16.477Z,13.30
2018-05-14T00:35:44.665Z,13.20
2018-05-14T00:38:12.221Z,13.30
2018-05-14T00:40:39.989Z,13.30
2018-05-14T00:43:08.565Z,13.40
2018-05-14T00:45:36.332Z,13.30
2018-05-14T00:48:04.096Z,13.30
2018-05-14T00:50:32.173Z,13.30
2018-05-14T00:53:00.689Z,13.30
2018-05-14T00:55:28.308Z,13.30
2018-05-14T00:57:56.071Z,13.40
2018-05-14T01:00:23.837Z,13.30
2018-05-14T01:02:51.508Z,13.40
2018-05-14T01:05:20.180Z,13.40
2018-05-14T01:07:47.944Z,13.40
2018-05-14T01:10:15.655Z,13.40
2018-05-14T01:12:43.498Z,13.40
2018-05-14T01:15:11.861Z,13.40
2018-05-14T01:17:40.327Z,13.40
2018-05-14T01:20:08.243Z,13.40
2018-05-14T01:22:36.011Z,13.40
2018-05-14T01:25:03.708Z,13.40
2018-05-14T01:27:31.283Z,13.40
2018-05-14T01:29:59.352Z,13.40
2018-05-14T01:32:27.836Z,13.30
2018-05-14T01:34:55.605Z,13.30
2018-05-14T01:37:24.079Z,13.30
2018-05-14T01:39:51.851Z,13.30
2018-05-14T01:42:20.224Z,13.30
2018-05-14T01:44:48.401Z,13.30
2018-05-14T01:47:16.160Z,13.40
2018-05-14T01:49:43.924Z,13.40
2018-05-14T01:52:11.793Z,13.40
2018-05-14T01:54:39.551Z,13.40
2018-05-14T01:57:07.217Z,13.40
2018-05-14T01:59:35.286Z,13.30
2018-05-14T02:02:03.045Z,13.30
2018-05-14T02:04:30.721Z,13.30
2018-05-14T02:06:59.717Z,13.30
2018-05-14T02:09:28.185Z,13.30
2018-05-14T02:11:55.944Z,13.30
2018-05-14T02:14:23.508Z,13.30
2018-05-14T02:16:51.478Z,13.20
2018-05-14T02:19:19.131Z,13.20
2018-05-14T02:21:46.696Z,13.20
2018-05-14T02:24:14.356Z,13.20
2018-05-14T02:26:42.016Z,13.20
2018-05-14T02:29:09.685Z,13.20
2018-05-14T02:31:38.059Z,13.20
2018-05-14T02:34:05.712Z,13.10
2018-05-14T02:36:34.201Z,13.20
2018-05-14T02:39:01.869Z,13.20
2018-05-14T02:41:30.185Z,13.10
2018-05-14T02:43:57.897Z,13.10
2018-05-14T02:46:25.502Z,13.10
2018-05-14T02:48:53.132Z,13.20
2018-05-14T02:51:21.499Z,13.10
2018-05-14T02:53:49.084Z,13.10
2018-05-14T02:56:17.441Z,13.10
2018-05-14T02:58:45.209Z,13.10
2018-05-14T03:01:13.680Z,13.10
2018-05-14T03:03:41.547Z,13.10
2018-05-14T03:06:09.208Z,13.10
2018-05-14T03:08:37.281Z,13.10
2018-05-14T03:11:05.041Z,13.10
2018-05-14T03:13:32.646Z,13.10
2018-05-14T03:16:00.799Z,13.10
2018-05-14T03:18:29.256Z,13.10
2018-05-14T03:20:57.129Z,13.00
2018-05-14T03:23:25.411Z,13.10
2018-05-14T03:25:53.885Z,13.10
2018-05-14T03:28:22.260Z,13.10
2018-05-14T03:30:50.129Z,13.10
2018-05-14T03:33:18.442Z,13.10
2018-05-14T03:35:46.159Z,13.10
2018-05-14T03:38:13.824Z,13.10
2018-05-14T03:40:41.594Z,13.10
2018-05-14T03:43:09.352Z,13.10
2018-05-14T03:45:37.117Z,13.10
2018-05-14T03:48:04.885Z,13.10
2018-05-14T03:50:33.261Z,13.10
2018-05-14T03:53:01.949Z,13.10
2018-05-14T03:55:29.508Z,13.10
2018-05-14T03:57:57.897Z,13.10
2018-05-14T04:00:38.348Z,13.10
2018-05-14T04:03:18.709Z,13.10
2018-05-14T04:05:59.270Z,13.10
2018-05-14T04:08:27.072Z,13.10
2018-05-14T04:10:54.463Z,13.10
2018-05-14T04:13:22.352Z,13.10
2018-05-14T04:15:49.961Z,13.10
2018-05-14T04:18:17.516Z,13.10
2018-05-14T04:20:45.337Z,13.10
2018-05-14T04:23:12.916Z,13.20
2018-05-14T04:25:41.374Z,13.20
2018-05-14T04:28:08.905Z,13.20
2018-05-14T04:30:36.391Z,13.20
2018-05-14T04:33:04.181Z,13.20
2018-05-14T04:35:32.164Z,13.20
2018-05-14T04:37:59.773Z,13.20
2018-05-14T04:40:27.385Z,13.20
2018-05-14T04:42:54.905Z,13.10
2018-05-14T04:45:22.484Z,13.20
2018-05-14T04:47:50.949Z,13.20
2018-05-14T04:50:19.193Z,13.20
2018-05-14T04:52:46.776Z,13.20
2018-05-14T04:55:14.648Z,13.20
2018-05-14T04:57:43.032Z,13.30
2018-05-14T05:00:11.604Z,13.20
2018-05-14T05:02:39.269Z,13.20
2018-05-14T05:05:07.032Z,13.30
2018-05-14T05:07:34.909Z,13.30
2018-05-14T05:10:03.285Z,13.30
2018-05-14T05:12:31.546Z,13.30
2018-05-14T05:14:59.080Z,13.40
2018-05-14T05:17:26.557Z,13.40
2018-05-14T05:19:54.066Z,13.40
2018-05-14T05:22:21.564Z,13.50
2018-05-14T05:24:49.036Z,13.50
2018-05-14T05:27:16.693Z,13.50
2018-05-14T05:29:44.160Z,13.50
2018-05-14T05:32:11.646Z,13.60
2018-05-14T05:34:39.892Z,13.60
2018-05-14T05:37:07.401Z,13.60
2018-05-14T05:39:34.908Z,13.60
2018-05-14T05:42:02.481Z,13.60
2018-05-14T05:44:30.815Z,13.70
2018-05-14T05:46:58.453Z,13.60
2018-05-14T05:49:25.985Z,13.70
2018-05-14T05:51:56.379Z,13.80
2018-05-14T05:54:24.637Z,13.80
2018-05-14T05:56:53.065Z,13.80
2018-05-14T05:59:20.657Z,13.80
2018-05-14T06:01:48.248Z,13.90
2018-05-14T06:04:16.428Z,13.90
2018-05-14T06:06:44.038Z,13.90
2018-05-14T06:09:11.507Z,14.00
2018-05-14T06:11:39.062Z,14.00
2018-05-14T06:14:06.561Z,14.00
2018-05-14T06:16:34.335Z,14.00
2018-05-14T06:19:01.896Z,14.10
2018-05-14T06:21:30.132Z,14.20
2018-05-14T06:23:58.020Z,14.20
2018-05-14T06:26:25.488Z,14.40
2018-05-14T06:28:53.085Z,14.60
2018-05-14T06:31:20.573Z,14.80
2018-05-14T06:33:48.101Z,15.00
2018-05-14T06:36:15.573Z,15.10
2018-05-14T06:38:43.089Z,15.00
2018-05-14T06:41:11.560Z,14.90
2018-05-14T06:43:39.040Z,15.00
2018-05-14T06:46:07.301Z,14.80
2018-05-14T06:48:35.893Z,14.70
2018-05-14T06:51:04.150Z,14.70
2018-05-14T06:53:31.724Z,14.70
2018-05-14T06:56:00.114Z,14.80
2018-05-14T06:58:28.173Z,14.80
2018-05-14T07:00:56.415Z,15.10
2018-05-14T07:03:24.648Z,15.10
2018-05-14T07:05:52.220Z,15.10
2018-05-14T07:08:19.740Z,15.20
2018-05-14T07:10:48.016Z,15.50
2018-05-14T07:13:16.341Z,15.60
2018-05-14T07:15:43.844Z,15.60
2018-05-14T07:18:11.388Z,15.60
2018-05-14T07:20:38.871Z,15.60
2018-05-14T07:23:07.448Z,15.70
2018-05-14T07:25:35.010Z,15.70
2018-05-14T07:28:03.485Z,15.80
2018-05-14T07:30:31.733Z,15.80
2018-05-14T07:32:59.200Z,15.80
2018-05-14T07:35:27.279Z,16.00
2018-05-14T07:37:54.753Z,16.30
2018-05-14T07:40:23.008Z,16.40
2018-05-14T07:42:50.579Z,16.40
2018-05-14T07:45:18.854Z,16.50
2018-05-14T07:47:47.093Z,16.20
2018-05-14T07:50:15.989Z,16.00
2018-05-14T07:52:43.477Z,16.00
2018-05-14T07:55:11.753Z,15.80
2018-05-14T07:57:40.452Z,15.80
2018-05-14T08:00:08.717Z,15.80
2018-05-14T08:02:36.962Z,15.90
2018-05-14T08:05:05.469Z,16.00
2018-05-14T08:07:33.011Z,16.00
2018-05-14T08:10:00.480Z,16.20
2018-05-14T08:12:27.960Z,16.20
2018-05-14T08:14:56.624Z,16.10
2018-05-14T08:17:24.184Z,16.10
2018-05-14T08:19:52.462Z,15.80
2018-05-14T08:22:21.252Z,15.70
2018-05-14T08:24:49.493Z,15.60
2018-05-14T08:27:16.963Z,15.60
2018-05-14T08:29:44.852Z,15.60
2018-05-14T08:32:12.408Z,15.70
2018-05-14T08:34:40.693Z,16.00
2018-05-14T08:37:09.184Z,16.00
2018-05-14T08:39:37.449Z,16.00
2018-05-14T08:42:05.721Z,15.80
2018-05-14T08:44:33.988Z,15.80
2018-05-14T08:47:01.952Z,15.80
2018-05-14T08:49:29.488Z,15.90
2018-05-14T08:51:57.745Z,15.90
2018-05-14T08:54:25.307Z,15.80
2018-05-14T08:56:53.957Z,15.60
2018-05-14T08:59:22.201Z,15.60
2018-05-14T09:01:49.776Z,15.60
2018-05-14T09:04:18.251Z,15.60
2018-05-14T09:06:45.720Z,15.60
2018-05-14T09:09:14.003Z,15.60
2018-05-14T09:11:42.257Z,15.60
2018-05-14T09:14:09.819Z,15.60
2018-05-14T09:16:37.689Z,15.70
2018-05-14T09:19:05.937Z,15.80
2018-05-14T09:21:33.417Z,15.80
2018-05-14T09:24:02.079Z,15.80
2018-05-14T09:26:29.557Z,15.90
2018-05-14T09:28:57.030Z,15.90
2018-05-14T09:31:25.365Z,16.00
2018-05-14T09:33:52.848Z,16.00
2018-05-14T09:36:20.820Z,15.90
2018-05-14T09:38:48.398Z,16.10
2018-05-14T09:41:18.036Z,16.10
2018-05-14T09:43:45.953Z,16.10
2018-05-14T09:46:13.513Z,16.10
2018-05-14T09:48:40.980Z,16.20
2018-05-14T09:51:09.244Z,16.40
2018-05-14T09:53:37.495Z,16.40
2018-05-14T09:56:05.029Z,16.40
2018-05-14T09:58:32.535Z,16.50
2018-05-14T10:01:00.137Z,16.70
2018-05-14T10:03:28.067Z,17.00
2018-05-14T10:05:56.340Z,17.20
2018-05-14T10:08:23.963Z,17.20
2018-05-14T10:10:51.442Z,17.20
2018-05-14T10:13:18.929Z,17.00
2018-05-14T10:15:47.423Z,16.80
2018-05-14T10:18:14.958Z,16.80
2018-05-14T10:20:43.228Z,16.90
2018-05-14T10:23:11.001Z,16.90
2018-05-14T10:25:39.242Z,16.80
2018-05-14T10:28:06.992Z,16.80
2018-05-14T10:30:34.462Z,16.80
2018-05-14T10:33:01.956Z,16.90
2018-05-14T10:35:30.262Z,17.20
2018-05-14T10:37:57.728Z,17.10
2018-05-14T10:40:25.240Z,17.10
2018-05-14T10:42:54.360Z,17.30
2018-05-14T10:45:21.892Z,17.30
2018-05-14T10:47:50.172Z,17.10
2018-05-14T10:50:18.436Z,17.10
2018-05-14T10:52:45.990Z,17.10
2018-05-14T10:55:13.459Z,17.10
2018-05-14T10:57:41.025Z,17.20
2018-05-14T11:00:09.811Z,17.60
2018-05-14T11:02:37.290Z,17.50
2018-05-14T11:05:04.920Z,17.50
2018-05-14T11:07:33.078Z,17.50
2018-05-14T11:10:00.567Z,17.50
2018-05-14T11:12:28.888Z,17.30
2018-05-14T11:14:56.370Z,17.30
2018-05-14T11:17:23.953Z,17.20
2018-05-14T11:19:52.530Z,17.00
2018-05-14T11:22:20.172Z,17.00
2018-05-14T11:24:47.644Z,16.90
2018-05-14T11:27:15.210Z,16.80
2018-05-14T11:29:43.701Z,16.70
2018-05-14T11:32:11.937Z,16.80
2018-05-14T11:34:39.408Z,16.70
2018-05-14T11:37:07.013Z,16.80
2018-05-14T11:39:34.545Z,16.90
2018-05-14T11:42:02.809Z,17.00
2018-05-14T11:44:30.378Z,17.00
2018-05-14T11:46:58.697Z,17.10
2018-05-14T11:49:26.316Z,17.10
2018-05-14T11:51:54.556Z,17.10
2018-05-14T11:54:22.024Z,17.10
2018-05-14T11:56:49.796Z,17.10
2018-05-14T11:59:17.284Z,17.50
2018-05-14T12:01:45.540Z,18.40
2018-05-14T12:04:14.125Z,18.50
2018-05-14T12:06:41.699Z,18.50
2018-05-14T12:09:09.966Z,18.80
2018-05-14T12:11:38.336Z,19.00
2018-05-14T12:14:05.804Z,18.90
2018-05-14T12:16:34.097Z,19.00
2018-05-14T12:19:01.881Z,19.00
2018-05-14T12:21:29.396Z,18.80
2018-05-14T12:23:57.974Z,18.50
2018-05-14T12:26:25.553Z,18.40
2018-05-14T12:28:53.792Z,18.30
2018-05-14T12:31:21.683Z,18.30
2018-05-14T12:33:49.255Z,18.30
2018-05-14T12:36:17.505Z,18.10
2018-05-14T12:38:45.276Z,18.00
2018-05-14T12:41:13.109Z,18.30
2018-05-14T12:43:40.596Z,18.30
2018-05-14T12:46:08.251Z,18.30
2018-05-14T12:48:35.830Z,18.40
2018-05-14T12:51:04.096Z,18.60
2018-05-14T12:53:32.373Z,18.70
2018-05-14T12:56:00.758Z,18.90
2018-05-14T12:58:29.256Z,19.00
2018-05-14T13:00:56.735Z,19.00
2018-05-14T13:03:24.253Z,18.90
2018-05-14T13:05:52.819Z,19.10
2018-05-14T13:08:20.424Z,19.10
2018-05-14T13:10:47.983Z,19.20
2018-05-14T13:13:15.712Z,19.40
2018-05-14T13:15:43.270Z,20.00
2018-05-14T13:18:10.749Z,20.30
2018-05-14T13:20:38.381Z,20.60
2018-05-14T13:23:05.957Z,20.70
2018-05-14T13:25:34.229Z,20.50
2018-05-14T13:28:03.221Z,20.20
2018-05-14T13:30:31.527Z,20.20
2018-05-14T13:32:59.051Z,20.10
2018-05-14T13:35:27.361Z,20.50
2018-05-14T13:37:55.018Z,20.40
2018-05-14T13:40:22.468Z,20.40
2018-05-14T13:42:50.088Z,20.40
2018-05-14T13:45:17.569Z,20.40
2018-05-14T13:47:45.809Z,20.20
2018-05-14T13:50:13.427Z,20.20
2018-05-14T13:52:40.957Z,20.40
2018-05-14T13:55:09.197Z,20.30
2018-05-14T13:57:36.827Z,20.20
2018-05-14T14:00:04.346Z,20.20
2018-05-14T14:02:31.848Z,20.40
2018-05-14T14:04:59.524Z,20.40
2018-05-14T14:07:27.044Z,20.30
2018-05-14T14:09:55.311Z,20.00
2018-05-14T14:12:23.880Z,20.00
2018-05-14T14:14:51.461Z,20.00
2018-05-14T14:17:19.698Z,19.90
2018-05-14T14:19:47.294Z,19.90
2018-05-14T14:22:15.796Z,19.80
2018-05-14T14:24:43.277Z,19.80
2018-05-14T14:27:10.770Z,19.70
2018-05-14T14:29:38.474Z,19.80
2018-05-14T14:32:05.920Z,19.90
2018-05-14T14:34:33.457Z,19.90
2018-05-14T14:37:01.261Z,20.00
2018-05-14T14:39:28.733Z,20.00
2018-05-14T14:41:56.248Z,20.00
2018-05-14T14:44:24.488Z,20.00
2018-05-14T14:46:52.172Z,20.10
2018-05-14T14:49:19.684Z,20.10
2018-05-14T14:51:47.196Z,20.10
2018-05-14T14:54:15.491Z,20.10
2018-05-14T14:56:43.958Z,20.00
2018-05-14T14:59:12.525Z,20.10
2018-05-14T15:01:39.988Z,20.00
2018-05-14T15:04:07.553Z,20.10
2018-05-14T15:06:35.957Z,20.20
2018-05-14T15:09:03.436Z,20.10
2018-05-14T15:11:31.056Z,20.20
2018-05-14T15:13:59.428Z,20.30
2018-05-14T15:16:27.715Z,20.40
2018-05-14T15:18:55.948Z,20.30
2018-05-14T15:21:23.489Z,20.30
2018-05-14T15:23:50.987Z,20.30
2018-05-14T15:26:18.557Z,20.30
2018-05-14T15:28:47.034Z,20.20
2018-05-14T15:31:14.513Z,20.20
2018-05-14T15:33:42.146Z,20.20
2018-05-14T15:36:09.717Z,20.30
2018-05-14T15:38:38.141Z,20.30
2018-05-14T15:41:05.690Z,20.30
2018-05-14T15:43:33.164Z,20.30
2018-05-14T15:46:00.653Z,20.30
2018-05-14T15:48:28.536Z,20.30
2018-05-14T15:50:56.803Z,20.20
2018-05-14T15:53:24.283Z,20.10
2018-05-14T15:55:51.924Z,20.10
2018-05-14T15:58:20.197Z,19.90
2018-05-14T16:00:47.694Z,19.90
2018-05-14T16:03:15.319Z,19.80
2018-05-14T16:05:43.715Z,19.70
2018-05-14T16:08:12.061Z,19.70
2018-05-14T16:10:39.544Z,19.70
2018-05-14T16:13:08.216Z,19.60
2018-05-14T16:15:35.786Z,19.60
2018-05-14T16:18:04.260Z,19.60
2018-05-14T16:20:31.886Z,19.60
2018-05-14T16:22:59.365Z,19.50
2018-05-14T16:25:26.940Z,19.50
2018-05-14T16:27:54.805Z,19.50
2018-05-14T16:30:23.044Z,19.60
2018-05-14T16:32:50.544Z,19.60
2018-05-14T16:35:19.324Z,19.60
2018-05-14T16:37:46.805Z,19.50
2018-05-14T16:40:14.404Z,19.50
2018-05-14T16:42:41.882Z,19.40
2018-05-14T16:45:09.664Z,19.40
2018-05-14T16:47:37.641Z,19.40
2018-05-14T16:50:06.124Z,19.30
2018-05-14T16:52:34.357Z,19.30
2018-05-14T16:55:02.152Z,19.30
2018-05-14T16:57:30.469Z,19.30
2018-05-14T16:59:58.087Z,19.30
2018-05-14T17:02:26.439Z,19.30
2018-05-14T17:04:53.914Z,19.30
2018-05-14T17:07:21.409Z,19.30
2018-05-14T17:09:49.052Z,19.30
2018-05-14T17:12:17.327Z,19.40
2018-05-14T17:14:45.568Z,19.30
2018-05-14T17:17:13.487Z,19.30
2018-05-14T17:19:40.973Z,19.30
2018-05-14T17:22:08.449Z,19.30
2018-05-14T17:24:36.745Z,19.30
2018-05-14T17:27:04.214Z,19.10
2018-05-14T17:29:32.492Z,19.10
2018-05-14T17:32:01.166Z,19.00
2018-05-14T17:34:29.482Z,19.00
2018-05-14T17:36:57.100Z,18.90
2018-05-14T17:39:25.223Z,18.90
2018-05-14T17:41:52.736Z,18.80
2018-05-14T17:44:20.336Z,18.70
2018-05-14T17:46:47.853Z,18.60
2018-05-14T17:49:15.360Z,18.60
2018-05-14T17:51:42.825Z,18.80
2018-05-14T17:54:10.364Z,18.60
2018-05-14T17:56:37.880Z,18.40
2018-05-14T17:59:05.560Z,18.00
2018-05-14T18:01:33.826Z,17.90
2018-05-14T18:04:02.069Z,17.90
2018-05-14T18:06:29.857Z,17.90
2018-05-14T18:08:57.330Z,18.10
2018-05-14T18:11:25.592Z,18.20
2018-05-14T18:13:53.356Z,18.20
2018-05-14T18:16:20.926Z,18.20
2018-05-14T18:18:49.170Z,18.00
2018-05-14T18:21:22.593Z,17.90
2018-05-14T18:23:50.835Z,17.80
2018-05-14T18:26:18.320Z,17.80
2018-05-14T18:28:48.862Z,17.70
2018-05-14T18:31:22.948Z,17.50
2018-05-14T18:33:54.244Z,17.60
2018-05-14T18:36:21.756Z,17.60
2018-05-14T18:38:49.380Z,17.60
2018-05-14T18:41:17.500Z,17.10
2018-05-14T18:43:45.777Z,16.30
2018-05-14T18:46:14.063Z,16.10
2018-05-14T18:48:42.345Z,16.00
2018-05-14T18:51:10.713Z,15.90
2018-05-14T18:53:38.990Z,15.80
2018-05-14T18:56:07.473Z,15.70
2018-05-14T18:58:35.718Z,15.70
2018-05-14T19:01:03.197Z,15.60
2018-05-14T19:03:31.584Z,15.50
2018-05-14T19:05:59.894Z,15.50
2018-05-14T19:08:27.710Z,15.40
2018-05-14T19:11:00.987Z,15.40
2018-05-14T19:13:28.981Z,15.20
2018-05-14T19:16:02.979Z,15.20
2018-05-14T19:18:30.747Z,15.20
2018-05-14T19:20:58.253Z,15.10
2018-05-14T19:23:31.513Z,15.00
2018-05-14T19:26:00.021Z,15.80
2018-05-14T19:28:33.796Z,15.70
2018-05-14T19:31:02.199Z,17.00
2018-05-14T19:33:35.408Z,17.00
2018-05-14T19:36:03.107Z,16.60
2018-05-14T19:38:31.297Z,15.50
2018-05-14T19:40:59.620Z,15.20
2018-05-14T19:43:27.131Z,15.20
2018-05-14T19:45:54.643Z,15.10
2018-05-14T19:48:22.120Z,15.10
2018-05-14T19:50:49.753Z,14.90
2018-05-14T19:53:17.971Z,14.50
2018-05-14T19:55:45.585Z,14.50
2018-05-14T19:58:13.074Z,14.40
2018-05-14T20:00:40.551Z,14.30
2018-05-14T20:03:08.116Z,14.40
2018-05-14T20:05:35.606Z,14.70
2018-05-14T20:08:03.146Z,14.80
2018-05-14T20:10:31.495Z,14.60
2018-05-14T20:12:59.128Z,14.60
2018-05-14T20:15:26.541Z,14.60
2018-05-14T20:17:54.813Z,14.50
2018-05-14T20:20:22.437Z,14.50
2018-05-14T20:22:50.037Z,14.40
2018-05-14T20:25:18.709Z,14.30
2018-05-14T20:27:46.270Z,14.30
2018-05-14T20:30:15.018Z,14.30
2018-05-14T20:32:42.626Z,14.30
2018-05-14T20:35:10.992Z,14.20
2018-05-14T20:37:39.273Z,14.10
2018-05-14T20:40:07.238Z,14.10
2018-05-14T20:42:35.528Z,14.10
2018-05-14T20:45:03.030Z,14.10
2018-05-14T20:47:30.674Z,14.20
2018-05-14T20:49:58.148Z,14.20
2018-05-14T20:52:25.695Z,14.00
2018-05-14T20:54:53.287Z,14.10
2018-05-14T20:57:20.870Z,14.20
2018-05-14T20:59:49.151Z,13.70
2018-05-14T21:02:16.732Z,13.70
2018-05-14T21:04:44.213Z,13.70
2018-05-14T21:07:11.684Z,13.50
2018-05-14T21:09:39.312Z,13.40
2018-05-14T21:12:06.838Z,13.40
2018-05-14T21:14:35.076Z,13.30
2018-05-14T21:17:03.706Z,13.30
2018-05-14T21:19:31.968Z,13.30
2018-05-14T21:21:59.530Z,13.30
2018-05-14T21:24:27.838Z,13.20
2018-05-14T21:26:55.317Z,13.20
2018-05-14T21:29:22.816Z,13.10
2018-05-14T21:31:50.905Z,13.10
2018-05-14T21:34:19.259Z,13.10
2018-05-14T21:36:46.831Z,13.10
2018-05-14T21:39:15.210Z,13.00
2018-05-14T21:41:43.453Z,12.90
2018-05-14T21:44:10.947Z,12.90
2018-05-14T21:46:38.933Z,12.90
2018-05-14T21:49:06.418Z,12.80
2018-05-14T21:51:33.917Z,12.80
2018-05-14T21:54:01.780Z,12.80
2018-05-14T21:56:29.350Z,12.70
2018-05-14T21:58:57.598Z,12.60
2018-05-14T22:01:26.206Z,12.60
2018-05-14T22:03:54.573Z,12.70
2018-05-14T22:06:22.329Z,12.70
2018-05-14T22:08:49.927Z,12.70
2018-05-14T22:11:17.816Z,12.60
2018-05-14T22:13:45.389Z,12.60
2018-05-14T22:16:12.888Z,12.50
2018-05-14T22:18:40.448Z,12.50
2018-05-14T22:21:08.832Z,12.40
2018-05-14T22:23:37.105Z,12.40
2018-05-14T22:26:05.583Z,12.30
2018-05-14T22:28:33.244Z,12.30
2018-05-14T22:31:00.904Z,12.30
2018-05-14T22:33:29.483Z,12.30
2018-05-14T22:35:57.759Z,12.20
2018-05-14T22:38:25.320Z,12.20
2018-05-14T22:40:52.918Z,12.20
2018-05-14T22:43:20.585Z,12.10
2018-05-14T22:45:48.113Z,12.10
2018-05-14T22:48:16.684Z,12.00
2018-05-14T22:50:44.265Z,12.00
2018-05-14T22:53:12.707Z,12.00
2018-05-14T22:55:40.256Z,11.90
2018-05-14T22:58:07.732Z,11.90
2018-05-14T23:00:35.685Z,11.70
2018-05-14T23:03:03.483Z,11.60
2018-05-14T23:05:31.753Z,11.50
2018-05-14T23:08:00.134Z,11.50
2018-05-14T23:10:28.425Z,11.40
2018-05-14T23:12:55.907Z,11.40
2018-05-14T23:15:23.538Z,11.40
2018-05-14T23:17:52.008Z,11.50
2018-05-14T23:20:20.388Z,11.40
2018-05-14T23:22:47.964Z,11.50
2018-05-14T23:25:15.728Z,11.40
2018-05-14T23:27:44.008Z,11.40
2018-05-14T23:30:12.556Z,11.40
2018-05-14T23:32:40.368Z,11.40
2018-05-14T23:35:07.893Z,11.50
2018-05-14T23:37:35.657Z,11.50
2018-05-14T23:40:03.932Z,11.50
2018-05-14T23:42:32.168Z,11.40
2018-05-14T23:44:59.697Z,11.40
2018-05-14T23:47:27.230Z,11.40
2018-05-14T23:49:55.699Z,11.30
2018-05-14T23:52:23.180Z,11.30
2018-05-14T23:54:51.446Z,11.10
2018-05-14T23:57:20.116Z,11.10
2018-05-14T23:59:47.688Z,11.00
